createdAt,value
2022-08-18T00:00:11.021Z,11.70
2022-08-18T00:02:56.679Z,11.30
2022-08-18T00:05:31.843Z,11.90
2022-08-18T00:08:02.931Z,11.80
2022-08-18T00:10:34.174Z,11.10
2022-08-18T00:13:05.215Z,11.40
2022-08-18T00:15:46.442Z,12.80
2022-08-18T00:18:20.033Z,11.90
2022-08-18T00:20:50.390Z,11.70
2022-08-18T00:23:20.772Z,14.40
2022-08-18T00:25:51.065Z,13.70
2022-08-18T00:28:23.951Z,14.10
2022-08-18T00:30:54.607Z,13.70
2022-08-18T00:33:25.013Z,14.00
2022-08-18T00:35:56.583Z,13.50
2022-08-18T00:38:27.017Z,14.30
2022-08-18T00:40:58.219Z,14.90
2022-08-18T00:43:33.454Z,14.10
2022-08-18T00:46:04.602Z,13.90
2022-08-18T00:48:34.951Z,13.60
2022-08-18T00:51:08.701Z,13.80
2022-08-18T00:53:45.779Z,13.80
2022-08-18T00:56:22.560Z,13.80
2022-08-18T00:58:59.401Z,13.50
2022-08-18T01:01:32.753Z,14.30
2022-08-18T01:04:09.326Z,14.80
2022-08-18T01:06:44.256Z,14.10
2022-08-18T01:09:17.960Z,14.20
2022-08-18T01:11:51.613Z,14.40
2022-08-18T01:14:22.855Z,14.10
2022-08-18T01:17:11.819Z,14.20
2022-08-18T01:20:00.660Z,14.80
2022-08-18T01:22:34.872Z,15.50
2022-08-18T01:25:26.344Z,14.90
2022-08-18T01:28:00.868Z,13.50
2022-08-18T01:30:35.046Z,14.70
2022-08-18T01:33:10.560Z,15.10
2022-08-18T01:35:43.225Z,16.50
2022-08-18T01:41:23.007Z,15.00
2022-08-18T01:43:36.683Z,16.40
2022-08-18T01:46:09.156Z,16.40
2022-08-18T01:48:42.575Z,15.90
2022-08-18T01:51:14.616Z,16.60
2022-08-18T01:53:47.051Z,15.40
2022-08-18T01:56:18.748Z,14.50
2022-08-18T01:58:50.194Z,14.60
2022-08-18T02:01:36.353Z,15.60
2022-08-18T02:04:33.952Z,15.80
2022-08-18T02:07:04.334Z,15.30
2022-08-18T02:09:38.010Z,15.00
2022-08-18T02:12:17.524Z,16.00
2022-08-18T02:14:50.512Z,16.00
2022-08-18T02:17:22.888Z,15.80
2022-08-18T02:19:53.772Z,16.60
2022-08-18T02:22:24.348Z,16.10
2022-08-18T02:24:54.834Z,15.10
2022-08-18T02:27:25.325Z,15.40
2022-08-18T02:29:56.248Z,15.20
2022-08-18T02:32:26.638Z,15.90
2022-08-18T02:35:00.372Z,14.90
2022-08-18T02:37:31.962Z,15.60
2022-08-18T02:40:02.686Z,16.00
2022-08-18T02:42:33.116Z,15.60
2022-08-18T02:45:03.476Z,16.30
2022-08-18T02:47:33.939Z,15.60
2022-08-18T02:50:04.608Z,14.30
2022-08-18T02:52:34.966Z,14.10
2022-08-18T02:55:06.066Z,14.50
2022-08-18T02:57:37.172Z,14.90
2022-08-18T03:00:11.483Z,15.50
2022-08-18T03:02:46.729Z,15.60
2022-08-18T03:05:18.044Z,15.30
2022-08-18T03:07:50.378Z,15.80
2022-08-18T03:13:06.331Z,15.10
2022-08-18T03:15:39.212Z,15.00
2022-08-18T03:18:12.700Z,16.30
2022-08-18T03:20:44.725Z,15.90
2022-08-18T03:23:19.237Z,15.20
2022-08-18T03:26:00.926Z,15.30
2022-08-18T03:28:32.235Z,14.90
2022-08-18T03:31:02.629Z,15.70
2022-08-18T03:33:33.388Z,14.10
2022-08-18T03:36:07.880Z,14.70
2022-08-18T03:38:38.466Z,14.10
2022-08-18T03:41:11.290Z,14.50
2022-08-18T03:43:51.424Z,15.60
2022-08-18T03:46:23.239Z,16.00
2022-08-18T03:48:54.286Z,17.00
2022-08-18T03:51:27.835Z,14.80
2022-08-18T03:54:00.606Z,15.70
2022-08-18T03:56:33.851Z,15.70
2022-08-18T03:59:07.851Z,15.70
2022-08-18T04:01:42.354Z,15.40
2022-08-18T04:04:17.255Z,15.70
2022-08-18T04:06:51.377Z,15.60
2022-08-18T04:09:25.253Z,13.70
2022-08-18T04:11:58.846Z,12.60
2022-08-18T04:14:32.298Z,11.40
2022-08-18T04:17:03.993Z,11.10
2022-08-18T04:19:36.135Z,10.80
2022-08-18T04:22:07.585Z,10.90
2022-08-18T04:24:39.305Z,10.20
2022-08-18T04:27:13.494Z,10.60
2022-08-18T04:29:45.305Z,10.40
2022-08-18T04:32:17.648Z,10.90
2022-08-18T04:34:50.210Z,10.30
2022-08-18T04:37:22.612Z,10.50
2022-08-18T04:39:55.414Z,10.80
2022-08-18T04:42:28.912Z,10.80
2022-08-18T04:45:01.670Z,13.70
2022-08-18T04:47:34.673Z,11.10
2022-08-18T04:50:07.617Z,10.40
2022-08-18T04:53:08.531Z,10.20
2022-08-18T04:55:40.391Z,9.20
2022-08-18T04:58:13.077Z,10.60
2022-08-18T05:08:01.110Z,9.10
2022-08-18T05:10:31.996Z,9.10
2022-08-18T05:13:02.269Z,8.80
2022-08-18T05:15:52.749Z,9.00
2022-08-18T05:18:25.114Z,8.60
2022-08-18T05:20:58.529Z,9.20
2022-08-18T05:23:31.562Z,8.70
2022-08-18T05:26:03.583Z,8.90
2022-08-18T05:28:37.041Z,8.50
2022-08-18T05:31:13.926Z,8.20
2022-08-18T05:33:45.126Z,8.70
2022-08-18T05:36:25.806Z,8.00
2022-08-18T05:39:04.827Z,9.00
2022-08-18T05:41:37.523Z,8.60
2022-08-18T05:44:10.074Z,9.20
2022-08-18T05:49:13.203Z,7.70
2022-08-18T05:51:46.041Z,9.40
2022-08-18T05:54:35.326Z,10.70
2022-08-18T05:57:09.548Z,11.10
2022-08-18T05:59:42.828Z,10.50
2022-08-18T06:02:16.856Z,11.80
2022-08-18T06:04:50.277Z,11.50
2022-08-18T06:07:25.133Z,12.30
2022-08-18T06:09:56.833Z,12.40
2022-08-18T06:12:32.714Z,12.00
2022-08-18T06:15:14.602Z,12.00
2022-08-18T06:18:04.563Z,11.90
2022-08-18T06:20:38.764Z,11.50
2022-08-18T06:23:22.291Z,10.40
2022-08-18T06:26:02.709Z,11.60
2022-08-18T06:28:40.403Z,11.80
2022-08-18T06:31:15.234Z,11.90
2022-08-18T06:33:54.546Z,11.30
2022-08-18T06:36:35.453Z,11.30
2022-08-18T06:39:13.679Z,10.90
2022-08-18T06:41:49.002Z,10.70
2022-08-18T06:44:29.189Z,11.40
2022-08-18T06:47:04.708Z,9.90
2022-08-18T06:49:40.750Z,10.00
2022-08-18T06:52:27.055Z,10.30
2022-08-18T06:54:59.199Z,10.20
2022-08-18T06:57:34.557Z,9.90
2022-08-18T07:00:11.268Z,11.60
2022-08-18T07:02:47.343Z,10.60
2022-08-18T07:05:24.016Z,10.90
2022-08-18T07:08:12.829Z,10.80
2022-08-18T07:10:45.028Z,11.30
2022-08-18T07:13:22.052Z,11.70
2022-08-18T07:15:52.520Z,10.60
2022-08-18T07:18:28.611Z,10.70
2022-08-18T07:21:01.211Z,10.30
2022-08-18T07:23:38.277Z,10.80
2022-08-18T07:26:15.160Z,11.30
2022-08-18T07:28:47.958Z,11.80
2022-08-18T07:31:30.908Z,11.30
2022-08-18T07:34:04.742Z,13.70
2022-08-18T07:36:38.211Z,12.80
2022-08-18T07:39:15.459Z,12.30
2022-08-18T07:41:52.063Z,13.70
2022-08-18T07:44:33.904Z,12.40
2022-08-18T07:47:08.245Z,13.40
2022-08-18T07:49:54.625Z,13.50
2022-08-18T07:52:44.453Z,14.30
2022-08-18T07:55:26.735Z,13.10
2022-08-18T07:58:01.528Z,14.10
2022-08-18T08:00:57.525Z,15.50
2022-08-18T08:03:35.820Z,13.50
2022-08-18T08:06:11.698Z,14.80
2022-08-18T08:08:48.752Z,14.30
2022-08-18T08:11:26.654Z,14.50
2022-08-18T08:14:07.110Z,14.80
2022-08-18T08:16:47.226Z,14.20
2022-08-18T08:19:59.641Z,14.20
2022-08-18T08:22:36.271Z,15.70
2022-08-18T08:25:35.108Z,14.70
2022-08-18T08:28:10.135Z,15.70
2022-08-18T08:30:45.557Z,15.10
2022-08-18T08:33:23.493Z,14.50
2022-08-18T08:35:56.051Z,15.40
2022-08-18T08:41:19.850Z,16.50
2022-08-18T08:43:57.801Z,17.40
2022-08-18T08:46:30.932Z,16.10
2022-08-18T08:49:07.420Z,16.10
2022-08-18T08:51:40.917Z,16.80
2022-08-18T08:54:16.146Z,16.20
2022-08-18T08:56:48.301Z,16.20
2022-08-18T08:59:21.717Z,15.20
2022-08-18T09:01:59.690Z,13.80
2022-08-18T09:04:36.830Z,15.70
2022-08-18T09:07:18.184Z,14.70
2022-08-18T09:09:58.189Z,16.50
2022-08-18T09:12:39.665Z,15.70
2022-08-18T09:15:21.880Z,15.80
2022-08-18T09:18:08.138Z,15.60
2022-08-18T09:20:53.157Z,15.40
2022-08-18T09:23:25.796Z,16.00
2022-08-18T09:25:58.524Z,17.30
2022-08-18T09:31:23.725Z,15.90
2022-08-18T09:34:23.232Z,16.50
2022-08-18T09:37:04.453Z,17.20
2022-08-18T09:39:55.240Z,15.20
2022-08-18T09:42:49.753Z,16.10
2022-08-18T09:45:57.488Z,15.10
2022-08-18T09:48:36.788Z,16.60
2022-08-18T09:51:40.023Z,16.10
2022-08-18T09:54:14.543Z,14.90
2022-08-18T09:57:21.006Z,15.20
2022-08-18T10:00:00.800Z,16.90
2022-08-18T10:03:03.824Z,18.20
2022-08-18T10:05:36.831Z,16.20
2022-08-18T10:08:37.850Z,15.60
2022-08-18T10:11:32.933Z,14.90
2022-08-18T10:14:18.941Z,15.50
2022-08-18T10:19:53.841Z,15.10
2022-08-18T10:22:47.929Z,14.50
2022-08-18T10:25:35.046Z,14.80
2022-08-18T10:28:07.056Z,15.10
2022-08-18T10:31:06.383Z,14.10
2022-08-18T10:34:05.534Z,16.80
2022-08-18T10:36:51.633Z,14.80
2022-08-18T10:39:24.679Z,15.30
2022-08-18T10:42:14.854Z,15.60
2022-08-18T10:44:46.803Z,14.80
2022-08-18T10:47:25.478Z,16.20
2022-08-18T10:50:08.730Z,16.30
2022-08-18T10:53:17.057Z,15.20
2022-08-18T10:55:50.108Z,15.30
2022-08-18T10:58:40.213Z,16.20
2022-08-18T11:01:18.637Z,15.70
2022-08-18T11:04:33.579Z,16.60
2022-08-18T11:07:09.764Z,16.60
2022-08-18T11:09:42.092Z,17.70
2022-08-18T11:12:14.942Z,17.40
2022-08-18T11:15:21.151Z,17.60
2022-08-18T11:18:06.611Z,20.50
2022-08-18T11:20:43.220Z,20.20
2022-08-18T11:23:18.761Z,18.80
2022-08-18T11:25:49.681Z,19.70
2022-08-18T11:28:21.281Z,19.10
2022-08-18T11:30:53.811Z,20.80
2022-08-18T11:33:24.792Z,19.20
2022-08-18T11:35:58.394Z,21.10
2022-08-18T11:38:31.734Z,20.50
2022-08-18T11:41:18.659Z,20.30
2022-08-18T11:43:50.849Z,19.10
2022-08-18T11:46:31.961Z,20.00
2022-08-18T11:49:15.599Z,19.20
2022-08-18T11:52:02.239Z,18.40
2022-08-18T11:54:50.086Z,17.40
2022-08-18T11:57:46.229Z,16.80
2022-08-18T12:01:01.620Z,16.70
2022-08-18T12:03:42.246Z,14.50
2022-08-18T12:09:30.624Z,15.80
2022-08-18T12:12:18.309Z,14.70
2022-08-18T12:15:04.854Z,15.50
2022-08-18T12:17:52.308Z,14.60
2022-08-18T12:26:38.810Z,14.50
2022-08-18T12:32:00.663Z,12.30
2022-08-18T12:34:33.538Z,11.80
2022-08-18T12:37:10.287Z,12.20
2022-08-18T12:39:55.637Z,11.60
2022-08-18T12:42:28.526Z,10.60
2022-08-18T12:45:01.779Z,11.00
2022-08-18T12:47:32.567Z,11.50
2022-08-18T12:50:11.507Z,11.40
2022-08-18T12:52:44.175Z,9.80
2022-08-18T12:58:06.034Z,10.90
2022-08-18T13:00:39.559Z,10.50
2022-08-18T13:03:11.080Z,10.00
2022-08-18T13:05:41.892Z,10.60
2022-08-18T13:08:30.113Z,11.10
2022-08-18T13:11:15.320Z,10.90
2022-08-18T13:13:57.546Z,11.20
2022-08-18T13:16:38.860Z,11.40
2022-08-18T13:19:10.839Z,10.60
2022-08-18T13:24:13.681Z,10.40
2022-08-18T13:26:49.107Z,10.40
2022-08-18T13:29:22.277Z,11.00
2022-08-18T13:31:58.801Z,11.00
2022-08-18T13:34:31.122Z,10.30
2022-08-18T13:37:01.580Z,10.40
2022-08-18T13:39:33.975Z,9.30
2022-08-18T13:42:26.210Z,10.20
2022-08-18T13:47:29.240Z,9.60
2022-08-18T13:50:00.857Z,10.10
2022-08-18T13:52:37.002Z,10.50
2022-08-18T13:55:14.056Z,10.00
2022-08-18T13:57:49.680Z,10.10
2022-08-18T14:00:29.637Z,10.60
2022-08-18T14:03:02.182Z,10.60
2022-08-18T14:05:36.529Z,10.10
2022-08-18T14:08:24.073Z,10.70
2022-08-18T14:10:58.027Z,10.60
2022-08-18T14:13:29.363Z,10.90
2022-08-18T14:16:10.515Z,10.80
2022-08-18T14:18:40.955Z,10.90
2022-08-18T14:21:33.505Z,11.30
2022-08-18T14:24:22.588Z,10.80
2022-08-18T14:26:55.656Z,11.60
2022-08-18T14:29:47.297Z,11.10
2022-08-18T14:32:18.036Z,11.40
2022-08-18T14:34:53.407Z,11.20
2022-08-18T14:37:31.990Z,11.80
2022-08-18T14:40:05.267Z,11.40
2022-08-18T14:42:54.273Z,10.80
2022-08-18T14:45:31.459Z,10.50
2022-08-18T14:48:06.558Z,10.70
2022-08-18T14:50:38.184Z,10.50
2022-08-18T14:53:08.965Z,10.20
2022-08-18T14:55:43.078Z,10.30
2022-08-18T14:58:13.481Z,12.40
2022-08-18T15:00:53.760Z,11.00
2022-08-18T15:03:30.818Z,10.20
2022-08-18T15:06:04.608Z,10.50
2022-08-18T15:08:36.018Z,11.60
2022-08-18T15:11:11.865Z,13.50
2022-08-18T15:13:45.232Z,10.20
2022-08-18T15:16:18.531Z,9.70
2022-08-18T15:18:50.035Z,11.10
2022-08-18T15:21:39.867Z,14.40
2022-08-18T15:24:28.548Z,16.10
2022-08-18T15:27:05.809Z,16.70
2022-08-18T15:29:37.221Z,16.70
2022-08-18T15:32:15.252Z,16.00
2022-08-18T15:34:51.032Z,16.40
2022-08-18T15:37:24.514Z,16.10
2022-08-18T15:40:05.567Z,18.20
2022-08-18T15:42:36.147Z,18.40
2022-08-18T15:47:44.385Z,19.00
2022-08-18T15:50:25.317Z,16.70
2022-08-18T15:52:58.741Z,15.70
2022-08-18T15:55:35.937Z,16.50
2022-08-18T15:58:10.897Z,17.90
2022-08-18T16:00:45.562Z,18.30
2022-08-18T16:03:17.655Z,19.20
2022-08-18T16:08:26.178Z,18.50
2022-08-18T16:10:57.429Z,18.50
2022-08-18T16:13:29.534Z,18.10
2022-08-18T16:16:01.763Z,18.40
2022-08-18T16:18:32.933Z,18.50
2022-08-18T16:21:10.627Z,19.10
2022-08-18T16:23:42.625Z,18.60
2022-08-18T16:28:52.394Z,20.30
2022-08-18T16:31:28.215Z,20.00
2022-08-18T16:33:59.896Z,19.10
2022-08-18T16:36:30.534Z,18.90
2022-08-18T16:39:01.236Z,20.50
2022-08-18T16:41:31.797Z,20.40
2022-08-18T16:44:02.681Z,20.10
2022-08-18T16:46:33.251Z,21.30
2022-08-18T16:49:06.656Z,21.00
2022-08-18T16:52:28.177Z,20.80
2022-08-18T16:54:58.705Z,18.20
2022-08-18T16:57:53.905Z,20.10
2022-08-18T17:00:44.307Z,20.70
2022-08-18T17:03:32.410Z,20.40
2022-08-18T17:06:04.517Z,19.40
2022-08-18T17:08:35.126Z,17.30
2022-08-18T17:11:06.689Z,19.30
2022-08-18T17:13:38.868Z,18.40
2022-08-18T17:16:09.743Z,18.60
2022-08-18T17:18:41.079Z,18.00
2022-08-18T17:21:13.654Z,18.30
2022-08-18T17:23:44.221Z,17.60
2022-08-18T17:26:21.932Z,16.60
2022-08-18T17:28:58.048Z,15.20
2022-08-18T17:31:29.719Z,14.60
2022-08-18T17:34:04.420Z,14.90
2022-08-18T17:36:37.273Z,13.60
2022-08-18T17:39:16.189Z,13.90
2022-08-18T17:42:30.545Z,14.50
2022-08-18T17:45:05.028Z,13.20
2022-08-18T17:47:39.207Z,14.10
2022-08-18T17:50:44.260Z,13.20
2022-08-18T17:53:15.148Z,12.40
2022-08-18T17:55:48.725Z,12.70
2022-08-18T17:58:26.851Z,12.90
2022-08-18T18:00:57.351Z,12.40
2022-08-18T18:03:29.634Z,13.50
2022-08-18T18:08:53.706Z,12.10
2022-08-18T18:11:31.989Z,12.80
2022-08-18T18:14:24.096Z,12.20
2022-08-18T18:17:07.081Z,13.00
2022-08-18T18:19:37.877Z,11.20
2022-08-18T18:22:11.070Z,11.70
2022-08-18T18:24:41.979Z,12.00
2022-08-18T18:27:31.946Z,11.90
2022-08-18T18:30:05.953Z,11.90
2022-08-18T18:32:38.834Z,12.00
2022-08-18T18:35:16.574Z,11.90
2022-08-18T18:37:51.619Z,11.60
2022-08-18T18:40:32.479Z,13.80
2022-08-18T18:43:22.453Z,13.80
2022-08-18T18:46:16.644Z,13.70
2022-08-18T18:48:54.091Z,13.40
2022-08-18T18:51:33.393Z,13.30
2022-08-18T18:54:10.180Z,14.70
2022-08-18T18:56:45.613Z,13.80
2022-08-18T18:59:25.560Z,14.20
2022-08-18T19:02:01.003Z,13.70
2022-08-18T19:04:47.748Z,14.10
2022-08-18T19:07:25.462Z,14.20
2022-08-18T19:10:01.258Z,14.40
2022-08-18T19:12:34.862Z,13.30
2022-08-18T19:15:08.441Z,13.30
2022-08-18T19:17:43.265Z,13.20
2022-08-18T19:20:19.005Z,12.10
2022-08-18T19:22:54.375Z,14.20
2022-08-18T19:25:28.718Z,13.10
2022-08-18T19:28:02.887Z,12.60
2022-08-18T19:30:35.921Z,12.40
2022-08-18T19:33:08.342Z,13.60
2022-08-18T19:38:20.959Z,11.60
2022-08-18T19:40:57.700Z,12.10
2022-08-18T19:43:36.342Z,13.00
2022-08-18T19:46:13.677Z,12.50
2022-08-18T19:48:51.351Z,11.60
2022-08-18T19:51:25.447Z,12.30
2022-08-18T19:54:09.518Z,12.50
2022-08-18T19:56:49.616Z,12.70
2022-08-18T19:59:39.854Z,12.90
2022-08-18T20:02:26.853Z,12.50
2022-08-18T20:05:08.360Z,12.70
2022-08-18T20:07:56.437Z,11.60
2022-08-18T20:10:36.961Z,12.70
2022-08-18T20:13:24.498Z,12.10
2022-08-18T20:16:13.064Z,12.40
2022-08-18T20:18:44.892Z,12.70
2022-08-18T20:21:41.896Z,13.20
2022-08-18T20:24:35.308Z,12.60
2022-08-18T20:27:32.928Z,12.40
2022-08-18T20:30:27.338Z,12.60
2022-08-18T20:33:18.810Z,12.90
2022-08-18T20:36:04.127Z,13.30
2022-08-18T20:38:36.804Z,13.10
2022-08-18T20:41:29.557Z,14.20
2022-08-18T20:46:42.634Z,11.20
2022-08-18T20:49:23.120Z,12.60
2022-08-18T20:52:00.467Z,13.40
2022-08-18T20:54:42.409Z,12.60
2022-08-18T20:57:29.851Z,12.70
2022-08-18T21:02:40.653Z,12.10
2022-08-18T21:05:27.473Z,13.20
2022-08-18T21:08:05.865Z,11.60
2022-08-18T21:10:36.675Z,12.60
2022-08-18T21:13:07.854Z,13.30
2022-08-18T21:15:39.240Z,13.50
2022-08-18T21:18:22.750Z,12.40
2022-08-18T21:20:55.482Z,13.80
2022-08-18T21:23:29.381Z,13.10
2022-08-18T21:26:01.299Z,12.70
2022-08-18T21:28:39.242Z,13.70
2022-08-18T21:31:41.654Z,13.10
2022-08-18T21:34:18.278Z,13.20
2022-08-18T21:36:54.800Z,13.60
2022-08-18T21:39:25.323Z,13.80
2022-08-18T21:41:58.335Z,12.90
2022-08-18T21:44:37.525Z,12.60
2022-08-18T21:47:14.759Z,12.60
2022-08-18T21:49:59.617Z,13.30
2022-08-18T21:52:31.680Z,13.50
2022-08-18T21:55:06.232Z,13.50
2022-08-18T21:58:03.120Z,14.10
2022-08-18T22:00:35.542Z,13.50
2022-08-18T22:03:19.092Z,13.40
2022-08-18T22:05:59.565Z,13.10
2022-08-18T22:08:33.286Z,15.00
2022-08-18T22:11:59.829Z,14.10
2022-08-18T22:14:36.019Z,14.10
2022-08-18T22:17:33.607Z,14.20
2022-08-18T22:20:40.571Z,13.90
2022-08-18T22:23:42.579Z,14.00
2022-08-18T22:26:15.816Z,12.90
2022-08-18T22:29:00.764Z,12.50
2022-08-18T22:31:34.904Z,11.70
2022-08-18T22:34:08.328Z,12.70
2022-08-18T22:36:45.098Z,13.90
2022-08-18T22:39:19.968Z,14.70
2022-08-18T22:41:51.026Z,15.70
2022-08-18T22:44:23.337Z,14.80
2022-08-18T22:46:54.276Z,14.20
2022-08-18T22:49:25.802Z,14.40
2022-08-18T22:51:58.201Z,14.40
2022-08-18T22:54:29.340Z,14.30
2022-08-18T22:57:01.506Z,13.80
2022-08-18T22:59:32.878Z,14.40
2022-08-18T23:02:06.043Z,14.20
2022-08-18T23:04:37.438Z,13.70
2022-08-18T23:07:08.621Z,15.00
2022-08-18T23:09:41.424Z,13.90
2022-08-18T23:12:17.340Z,15.10
2022-08-18T23:14:57.727Z,14.50
2022-08-18T23:17:28.894Z,14.00
2022-08-18T23:20:00.162Z,15.70
2022-08-18T23:22:33.612Z,15.80
2022-08-18T23:25:09.093Z,14.60
2022-08-18T23:27:41.151Z,14.60
2022-08-18T23:30:13.943Z,14.20
2022-08-18T23:32:45.075Z,15.10
2022-08-18T23:35:17.671Z,15.70
2022-08-18T23:37:51.778Z,15.60
2022-08-18T23:40:25.278Z,16.00
2022-08-18T23:42:56.873Z,14.20
2022-08-18T23:45:29.137Z,13.50
2022-08-18T23:48:00.494Z,13.90
2022-08-18T23:50:32.631Z,14.60
2022-08-18T23:53:04.711Z,13.50
2022-08-18T23:55:38.655Z,14.60
2022-08-18T23:58:12.617Z,14.10
